sensor_id;sensor_type;location;lat;lon;timestamp;pressure;altitude;pressure_sealevel;temperature;humidity
12763;BME280;6445;52.490;13.378;2023-04-22T00:01:13;51937.94;;;-146.10;64.33
12763;BME280;6445;52.490;13.378;2023-04-22T00:03:39;51915.94;;;-146.10;63.12
12763;BME280;6445;52.490;13.378;2023-04-22T00:06:06;51929.94;;;-146.10;62.31
12763;BME280;6445;52.490;13.378;2023-04-22T00:08:31;51909.94;;;-146.10;62.15
12763;BME280;6445;52.490;13.378;2023-04-22T00:10:56;51911.94;;;-146.10;63.44
12763;BME280;6445;52.490;13.378;2023-04-22T00:13:22;51919.94;;;-146.10;63.69
12763;BME280;6445;52.490;13.378;2023-04-22T00:15:47;51915.94;;;-146.10;62.99
12763;BME280;6445;52.490;13.378;2023-04-22T00:18:12;51955.97;;;-146.10;64.97
12763;BME280;6445;52.490;13.378;2023-04-22T00:20:39;51935.94;;;-146.10;65.86
12763;BME280;6445;52.490;13.378;2023-04-22T00:23:04;51937.94;;;-146.10;66.17
12763;BME280;6445;52.490;13.378;2023-04-22T00:25:30;51911.94;;;-146.10;65.37
12763;BME280;6445;52.490;13.378;2023-04-22T00:27:55;51929.94;;;-146.10;65.65
12763;BME280;6445;52.490;13.378;2023-04-22T00:30:20;51919.94;;;-146.10;65.24
12763;BME280;6445;52.490;13.378;2023-04-22T00:32:45;51941.94;;;-146.10;66.67
12763;BME280;6445;52.490;13.378;2023-04-22T00:35:12;51949.97;;;-146.10;64.76
12763;BME280;6445;52.490;13.378;2023-04-22T00:37:38;51921.94;;;-146.10;66.17
12763;BME280;6445;52.490;13.378;2023-04-22T00:40:03;51951.97;;;-146.10;66.66
12763;BME280;6445;52.490;13.378;2023-04-22T00:42:31;51931.94;;;-146.10;66.51
12763;BME280;6445;52.490;13.378;2023-04-22T00:44:56;51951.97;;;-146.10;65.67
12763;BME280;6445;52.490;13.378;2023-04-22T00:47:21;51929.94;;;-146.10;65.68
12763;BME280;6445;52.490;13.378;2023-04-22T00:49:50;51973.97;;;-146.10;68.43
12763;BME280;6445;52.490;13.378;2023-04-22T00:52:17;51937.94;;;-146.10;67.65
12763;BME280;6445;52.490;13.378;2023-04-22T00:54:42;51963.97;;;-146.10;68.10
12763;BME280;6445;52.490;13.378;2023-04-22T00:57:08;51965.97;;;-146.10;67.35
12763;BME280;6445;52.490;13.378;2023-04-22T00:59:33;51957.97;;;-146.10;68.31
12763;BME280;6445;52.490;13.378;2023-04-22T01:01:59;51953.97;;;-146.10;67.84
12763;BME280;6445;52.490;13.378;2023-04-22T01:04:24;51979.97;;;-146.10;69.05
12763;BME280;6445;52.490;13.378;2023-04-22T01:06:51;51953.97;;;-146.10;66.92
12763;BME280;6445;52.490;13.378;2023-04-22T01:09:18;51921.94;;;-146.10;67.71
12763;BME280;6445;52.490;13.378;2023-04-22T01:11:43;51955.97;;;-146.10;69.61
12763;BME280;6445;52.490;13.378;2023-04-22T01:14:09;51943.97;;;-146.10;67.94
12763;BME280;6445;52.490;13.378;2023-04-22T01:16:34;51969.97;;;-146.10;68.30
12763;BME280;6445;52.490;13.378;2023-04-22T01:19:03;51941.94;;;-146.10;68.48
12763;BME280;6445;52.490;13.378;2023-04-22T01:21:28;51951.97;;;-146.10;68.44
12763;BME280;6445;52.490;13.378;2023-04-22T01:23:53;51939.94;;;-146.10;67.63
12763;BME280;6445;52.490;13.378;2023-04-22T01:26:19;51929.94;;;-146.10;67.72
12763;BME280;6445;52.490;13.378;2023-04-22T01:28:44;51947.97;;;-146.10;67.13
12763;BME280;6445;52.490;13.378;2023-04-22T01:31:09;51935.94;;;-146.10;67.77
12763;BME280;6445;52.490;13.378;2023-04-22T01:33:35;51947.97;;;-146.10;68.13
12763;BME280;6445;52.490;13.378;2023-04-22T01:36:02;51921.94;;;-146.10;67.52
12763;BME280;6445;52.490;13.378;2023-04-22T01:38:27;51939.94;;;-146.10;65.72
12763;BME280;6445;52.490;13.378;2023-04-22T01:40:52;51943.97;;;-146.10;65.62
12763;BME280;6445;52.490;13.378;2023-04-22T01:43:18;51909.94;;;-146.10;65.16
12763;BME280;6445;52.490;13.378;2023-04-22T01:45:43;51913.94;;;-146.10;64.41
12763;BME280;6445;52.490;13.378;2023-04-22T01:48:08;51917.94;;;-146.10;65.94
12763;BME280;6445;52.490;13.378;2023-04-22T01:50:35;51929.94;;;-146.10;66.17
12763;BME280;6445;52.490;13.378;2023-04-22T01:53:00;51937.94;;;-146.10;67.52
12763;BME280;6445;52.490;13.378;2023-04-22T01:55:25;51917.94;;;-146.10;67.88
12763;BME280;6445;52.490;13.378;2023-04-22T01:57:51;51931.94;;;-146.10;67.32
12763;BME280;6445;52.490;13.378;2023-04-22T02:00:16;51929.94;;;-146.10;67.07
12763;BME280;6445;52.490;13.378;2023-04-22T02:02:42;51911.94;;;-146.10;66.57
12763;BME280;6445;52.490;13.378;2023-04-22T02:05:07;51917.94;;;-146.10;66.47
12763;BME280;6445;52.490;13.378;2023-04-22T02:07:33;51937.94;;;-146.10;66.81
12763;BME280;6445;52.490;13.378;2023-04-22T02:09:58;51941.94;;;-146.10;67.23
12763;BME280;6445;52.490;13.378;2023-04-22T02:12:23;51941.94;;;-146.10;66.42
12763;BME280;6445;52.490;13.378;2023-04-22T02:14:48;51911.94;;;-146.10;66.10
12763;BME280;6445;52.490;13.378;2023-04-22T02:17:14;51931.94;;;-146.10;65.68
12763;BME280;6445;52.490;13.378;2023-04-22T02:19:41;51925.94;;;-146.10;66.89
12763;BME280;6445;52.490;13.378;2023-04-22T02:22:07;51919.94;;;-146.10;65.94
12763;BME280;6445;52.490;13.378;2023-04-22T02:24:32;51925.94;;;-146.10;66.94
12763;BME280;6445;52.490;13.378;2023-04-22T02:26:57;51927.94;;;-146.10;66.49
12763;BME280;6445;52.490;13.378;2023-04-22T02:29:22;51927.94;;;-146.10;66.75
12763;BME280;6445;52.490;13.378;2023-04-22T02:31:48;51937.94;;;-146.10;66.74
12763;BME280;6445;52.490;13.378;2023-04-22T02:34:13;51927.94;;;-146.10;67.21
12763;BME280;6445;52.490;13.378;2023-04-22T02:36:38;51913.94;;;-146.10;66.64
12763;BME280;6445;52.490;13.378;2023-04-22T02:39:04;51915.94;;;-146.10;66.01
12763;BME280;6445;52.490;13.378;2023-04-22T02:41:30;51927.94;;;-146.10;66.92
12763;BME280;6445;52.490;13.378;2023-04-22T02:43:55;51907.94;;;-146.10;66.82
12763;BME280;6445;52.490;13.378;2023-04-22T02:46:20;51937.94;;;-146.10;68.52
12763;BME280;6445;52.490;13.378;2023-04-22T02:48:45;51941.94;;;-146.10;69.44
12763;BME280;6445;52.490;13.378;2023-04-22T02:51:11;51953.97;;;-146.10;69.94
12763;BME280;6445;52.490;13.378;2023-04-22T02:53:36;51963.97;;;-146.10;70.05
12763;BME280;6445;52.490;13.378;2023-04-22T02:56:01;51967.97;;;-146.10;70.28
12763;BME280;6445;52.490;13.378;2023-04-22T02:58:27;52003.97;;;-146.10;72.26
12763;BME280;6445;52.490;13.378;2023-04-22T03:00:52;51977.97;;;-146.10;69.88
12763;BME280;6445;52.490;13.378;2023-04-22T03:03:17;51975.97;;;-146.10;71.43
12763;BME280;6445;52.490;13.378;2023-04-22T03:05:42;52023.97;;;-146.10;72.67
12763;BME280;6445;52.490;13.378;2023-04-22T03:08:08;52039.97;;;-146.10;74.15
12763;BME280;6445;52.490;13.378;2023-04-22T03:10:33;52001.97;;;-146.10;72.17
12763;BME280;6445;52.490;13.378;2023-04-22T03:12:58;51973.97;;;-146.10;70.83
12763;BME280;6445;52.490;13.378;2023-04-22T03:15:23;51953.97;;;-146.10;69.02
12763;BME280;6445;52.490;13.378;2023-04-22T03:17:49;51959.97;;;-146.10;67.81
12763;BME280;6445;52.490;13.378;2023-04-22T03:20:14;51947.97;;;-146.10;67.90
12763;BME280;6445;52.490;13.378;2023-04-22T03:22:40;51947.97;;;-146.10;67.95
12763;BME280;6445;52.490;13.378;2023-04-22T03:25:05;51923.94;;;-146.10;68.07
12763;BME280;6445;52.490;13.378;2023-04-22T03:27:31;51937.94;;;-146.10;69.87
12763;BME280;6445;52.490;13.378;2023-04-22T03:29:56;51927.94;;;-146.10;69.56
12763;BME280;6445;52.490;13.378;2023-04-22T03:32:22;51955.97;;;-146.10;69.42
12763;BME280;6445;52.490;13.378;2023-04-22T03:34:47;51943.97;;;-146.10;69.28
12763;BME280;6445;52.490;13.378;2023-04-22T03:37:12;51921.94;;;-146.10;68.50
12763;BME280;6445;52.490;13.378;2023-04-22T03:39:37;51927.94;;;-146.10;68.62
12763;BME280;6445;52.490;13.378;2023-04-22T03:42:03;51935.94;;;-146.10;68.39
12763;BME280;6445;52.490;13.378;2023-04-22T03:44:28;51941.94;;;-146.10;69.07
12763;BME280;6445;52.490;13.378;2023-04-22T03:46:53;51945.97;;;-146.10;69.88
12763;BME280;6445;52.490;13.378;2023-04-22T03:49:18;51941.94;;;-146.10;70.13
12763;BME280;6445;52.490;13.378;2023-04-22T03:51:43;51955.97;;;-146.10;69.82
12763;BME280;6445;52.490;13.378;2023-04-22T03:54:09;51969.97;;;-146.10;70.14
12763;BME280;6445;52.490;13.378;2023-04-22T03:56:35;51953.97;;;-146.10;70.36
12763;BME280;6445;52.490;13.378;2023-04-22T03:59:00;51949.97;;;-146.10;69.83
12763;BME280;6445;52.490;13.378;2023-04-22T04:01:26;51953.97;;;-146.10;70.55
12763;BME280;6445;52.490;13.378;2023-04-22T04:03:51;51953.97;;;-146.10;70.99
12763;BME280;6445;52.490;13.378;2023-04-22T04:06:16;51955.97;;;-146.10;71.12
12763;BME280;6445;52.490;13.378;2023-04-22T04:08:42;51959.97;;;-146.10;71.26
12763;BME280;6445;52.490;13.378;2023-04-22T04:11:08;51965.97;;;-146.10;71.15
12763;BME280;6445;52.490;13.378;2023-04-22T04:13:34;51967.97;;;-146.10;70.29
12763;BME280;6445;52.490;13.378;2023-04-22T04:15:59;51983.97;;;-146.10;70.78
12763;BME280;6445;52.490;13.378;2023-04-22T04:18:25;51981.97;;;-146.10;70.62
12763;BME280;6445;52.490;13.378;2023-04-22T04:20:51;51983.97;;;-146.10;70.87
12763;BME280;6445;52.490;13.378;2023-04-22T04:23:16;51969.97;;;-146.10;70.79
12763;BME280;6445;52.490;13.378;2023-04-22T04:25:42;51975.97;;;-146.10;70.64
12763;BME280;6445;52.490;13.378;2023-04-22T04:28:09;51973.97;;;-146.10;70.89
12763;BME280;6445;52.490;13.378;2023-04-22T04:30:35;51977.97;;;-146.10;70.97
12763;BME280;6445;52.490;13.378;2023-04-22T04:33:00;51969.97;;;-146.10;70.85
12763;BME280;6445;52.490;13.378;2023-04-22T04:35:31;51973.97;;;-146.10;70.75
12763;BME280;6445;52.490;13.378;2023-04-22T04:37:58;51981.97;;;-146.10;70.61
12763;BME280;6445;52.490;13.378;2023-04-22T04:40:24;51983.97;;;-146.10;70.71
12763;BME280;6445;52.490;13.378;2023-04-22T04:42:49;51957.97;;;-146.10;70.19
12763;BME280;6445;52.490;13.378;2023-04-22T04:45:17;51969.97;;;-146.10;70.43
12763;BME280;6445;52.490;13.378;2023-04-22T04:47:43;51967.97;;;-146.10;69.99
12763;BME280;6445;52.490;13.378;2023-04-22T04:50:09;51967.97;;;-146.10;69.50
12763;BME280;6445;52.490;13.378;2023-04-22T04:52:34;51949.97;;;-146.10;69.69
12763;BME280;6445;52.490;13.378;2023-04-22T04:55:00;51951.97;;;-146.10;69.30
12763;BME280;6445;52.490;13.378;2023-04-22T04:57:25;51949.97;;;-146.10;69.28
12763;BME280;6445;52.490;13.378;2023-04-22T04:59:50;51949.97;;;-146.10;68.95
12763;BME280;6445;52.490;13.378;2023-04-22T05:02:15;51951.97;;;-146.10;69.22
12763;BME280;6445;52.490;13.378;2023-04-22T05:04:41;51935.94;;;-146.10;68.90
12763;BME280;6445;52.490;13.378;2023-04-22T05:07:06;51967.97;;;-146.10;68.56
12763;BME280;6445;52.490;13.378;2023-04-22T05:09:31;51949.97;;;-146.10;67.32
12763;BME280;6445;52.490;13.378;2023-04-22T05:12:01;51959.97;;;-146.10;65.62
12763;BME280;6445;52.490;13.378;2023-04-22T05:14:27;51911.94;;;-146.10;63.30
12763;BME280;6445;52.490;13.378;2023-04-22T05:16:52;51941.94;;;-146.10;61.17
12763;BME280;6445;52.490;13.378;2023-04-22T05:19:17;51929.94;;;-146.10;60.19
12763;BME280;6445;52.490;13.378;2023-04-22T05:21:42;51955.97;;;-146.10;59.36
12763;BME280;6445;52.490;13.378;2023-04-22T05:24:07;51937.94;;;-146.10;58.29
12763;BME280;6445;52.490;13.378;2023-04-22T05:26:33;51921.94;;;-146.10;57.08
12763;BME280;6445;52.490;13.378;2023-04-22T05:28:58;51929.94;;;-146.10;56.19
12763;BME280;6445;52.490;13.378;2023-04-22T05:31:23;51927.94;;;-146.10;55.74
12763;BME280;6445;52.490;13.378;2023-04-22T05:33:49;51943.97;;;-146.10;55.89
12763;BME280;6445;52.490;13.378;2023-04-22T05:36:14;51947.97;;;-146.10;54.47
12763;BME280;6445;52.490;13.378;2023-04-22T05:38:39;51959.97;;;-146.10;52.70
12763;BME280;6445;52.490;13.378;2023-04-22T05:41:04;51977.97;;;-146.10;51.28
12763;BME280;6445;52.490;13.378;2023-04-22T05:43:30;51989.97;;;-146.10;50.83
12763;BME280;6445;52.490;13.378;2023-04-22T05:45:55;51989.97;;;-146.10;49.59
12763;BME280;6445;52.490;13.378;2023-04-22T05:48:20;51977.97;;;-146.10;49.57
12763;BME280;6445;52.490;13.378;2023-04-22T05:50:46;52005.97;;;-146.10;48.95
12763;BME280;6445;52.490;13.378;2023-04-22T05:53:11;52007.97;;;-146.10;47.88
12763;BME280;6445;52.490;13.378;2023-04-22T05:55:36;52003.97;;;-146.10;46.51
12763;BME280;6445;52.490;13.378;2023-04-22T05:58:01;51999.97;;;-146.10;46.36
12763;BME280;6445;52.490;13.378;2023-04-22T06:00:27;52005.97;;;-146.10;45.58
12763;BME280;6445;52.490;13.378;2023-04-22T06:02:52;52039.97;;;-146.10;44.57
12763;BME280;6445;52.490;13.378;2023-04-22T06:05:17;52078.00;;;-146.10;43.15
12763;BME280;6445;52.490;13.378;2023-04-22T06:07:43;52053.97;;;-146.10;42.51
12763;BME280;6445;52.490;13.378;2023-04-22T06:10:08;52090.00;;;-146.10;41.92
12763;BME280;6445;52.490;13.378;2023-04-22T06:12:34;52076.00;;;-146.10;41.56
12763;BME280;6445;52.490;13.378;2023-04-22T06:14:59;52084.00;;;-146.10;40.31
12763;BME280;6445;52.490;13.378;2023-04-22T06:17:24;52092.00;;;-146.10;40.50
12763;BME280;6445;52.490;13.378;2023-04-22T06:19:50;52120.00;;;-146.10;39.68
12763;BME280;6445;52.490;13.378;2023-04-22T06:22:15;52120.00;;;-146.10;39.27
12763;BME280;6445;52.490;13.378;2023-04-22T06:24:40;52112.00;;;-146.10;39.35
12763;BME280;6445;52.490;13.378;2023-04-22T06:27:05;52132.00;;;-146.10;37.95
12763;BME280;6445;52.490;13.378;2023-04-22T06:29:31;52156.00;;;-146.10;38.06
12763;BME280;6445;52.490;13.378;2023-04-22T06:31:56;52146.00;;;-146.10;37.69
12763;BME280;6445;52.490;13.378;2023-04-22T06:34:21;52154.00;;;-146.10;36.71
12763;BME280;6445;52.490;13.378;2023-04-22T06:36:47;52204.03;;;-146.10;36.61
12763;BME280;6445;52.490;13.378;2023-04-22T06:39:12;52164.00;;;-146.10;36.81
12763;BME280;6445;52.490;13.378;2023-04-22T06:41:38;52156.00;;;-146.10;36.98
12763;BME280;6445;52.490;13.378;2023-04-22T06:44:03;52130.00;;;-146.10;36.53
12763;BME280;6445;52.490;13.378;2023-04-22T06:46:28;52178.00;;;-146.10;35.54
12763;BME280;6445;52.490;13.378;2023-04-22T06:48:53;52162.00;;;-146.10;35.96
12763;BME280;6445;52.490;13.378;2023-04-22T06:51:19;52224.03;;;-146.10;34.61
12763;BME280;6445;52.490;13.378;2023-04-22T06:53:44;52252.03;;;-146.10;33.89
12763;BME280;6445;52.490;13.378;2023-04-22T06:56:10;52282.03;;;-146.10;32.92
12763;BME280;6445;52.490;13.378;2023-04-22T06:58:35;52280.03;;;-146.10;32.59
12763;BME280;6445;52.490;13.378;2023-04-22T07:01:00;52286.03;;;-146.10;32.47
12763;BME280;6445;52.490;13.378;2023-04-22T07:03:26;52330.06;;;-146.10;32.30
12763;BME280;6445;52.490;13.378;2023-04-22T07:05:51;52300.06;;;-146.10;31.89
12763;BME280;6445;52.490;13.378;2023-04-22T07:08:16;52366.06;;;-146.10;31.89
12763;BME280;6445;52.490;13.378;2023-04-22T07:10:42;52424.09;;;-146.10;30.90
12763;BME280;6445;52.490;13.378;2023-04-22T07:13:07;52388.09;;;-146.10;30.71
12763;BME280;6445;52.490;13.378;2023-04-22T07:15:32;52390.09;;;-146.10;30.59
12763;BME280;6445;52.490;13.378;2023-04-22T07:17:57;52380.09;;;-146.10;30.92
12763;BME280;6445;52.490;13.378;2023-04-22T07:20:23;52466.09;;;-146.10;29.72
12763;BME280;6445;52.490;13.378;2023-04-22T07:22:49;52404.09;;;-146.10;30.01
12763;BME280;6445;52.490;13.378;2023-04-22T07:25:15;52480.13;;;-146.10;29.31
12763;BME280;6445;52.490;13.378;2023-04-22T07:27:40;52442.09;;;-146.10;29.54
12763;BME280;6445;52.490;13.378;2023-04-22T07:30:06;52452.09;;;-146.10;29.86
12763;BME280;6445;52.490;13.378;2023-04-22T07:32:32;52510.13;;;-146.10;29.54
12763;BME280;6445;52.490;13.378;2023-04-22T07:34:57;52586.16;;;-146.10;28.68
12763;BME280;6445;52.490;13.378;2023-04-22T07:37:22;52554.16;;;-146.10;27.74
12763;BME280;6445;52.490;13.378;2023-04-22T07:39:47;52542.13;;;-146.10;28.35
12763;BME280;6445;52.490;13.378;2023-04-22T07:42:13;52530.13;;;-146.10;28.44
12763;BME280;6445;52.490;13.378;2023-04-22T07:44:38;52492.13;;;-146.10;28.64
12763;BME280;6445;52.490;13.378;2023-04-22T07:47:03;52486.13;;;-146.10;28.56
12763;BME280;6445;52.490;13.378;2023-04-22T07:49:29;52522.13;;;-146.10;28.24
12763;BME280;6445;52.490;13.378;2023-04-22T07:51:55;52538.13;;;-146.10;28.16
12763;BME280;6445;52.490;13.378;2023-04-22T07:54:20;52568.16;;;-146.10;27.71
12763;BME280;6445;52.490;13.378;2023-04-22T07:56:46;52608.16;;;-146.10;27.73
12763;BME280;6445;52.490;13.378;2023-04-22T07:59:11;52554.16;;;-146.10;27.96
12763;BME280;6445;52.490;13.378;2023-04-22T08:01:36;52602.16;;;-146.10;27.92
12763;BME280;6445;52.490;13.378;2023-04-22T08:04:01;52656.19;;;-146.10;27.48
12763;BME280;6445;52.490;13.378;2023-04-22T08:06:27;52710.22;;;-146.10;26.98
12763;BME280;6445;52.490;13.378;2023-04-22T08:08:52;52660.19;;;-146.10;27.24
12763;BME280;6445;52.490;13.378;2023-04-22T08:11:17;52698.19;;;-146.10;26.84
12763;BME280;6445;52.490;13.378;2023-04-22T08:13:43;52792.25;;;-146.10;26.13
12763;BME280;6445;52.490;13.378;2023-04-22T08:16:08;52700.19;;;-146.10;26.47
12763;BME280;6445;52.490;13.378;2023-04-22T08:18:34;52758.22;;;-146.10;26.32
12763;BME280;6445;52.490;13.378;2023-04-22T08:20:59;52756.22;;;-146.10;26.22
12763;BME280;6445;52.490;13.378;2023-04-22T08:23:24;52790.25;;;-146.10;26.33
12763;BME280;6445;52.490;13.378;2023-04-22T08:25:50;52770.22;;;-146.10;25.90
12763;BME280;6445;52.490;13.378;2023-04-22T08:28:16;52774.22;;;-146.10;25.30
12763;BME280;6445;52.490;13.378;2023-04-22T08:30:41;52814.25;;;-146.10;25.66
12763;BME280;6445;52.490;13.378;2023-04-22T08:33:06;52842.25;;;-146.10;25.19
12763;BME280;6445;52.490;13.378;2023-04-22T08:35:35;52830.25;;;-146.10;25.17
12763;BME280;6445;52.490;13.378;2023-04-22T08:38:00;52746.22;;;-146.10;25.93
12763;BME280;6445;52.490;13.378;2023-04-22T08:40:26;52926.31;;;-146.10;24.79
12763;BME280;6445;52.490;13.378;2023-04-22T08:42:51;52904.28;;;-146.10;24.86
12763;BME280;6445;52.490;13.378;2023-04-22T08:45:18;52868.28;;;-146.10;25.29
12763;BME280;6445;52.490;13.378;2023-04-22T08:47:44;52976.31;;;-146.10;24.22
12763;BME280;6445;52.490;13.378;2023-04-22T08:50:10;52930.31;;;-146.10;24.61
12763;BME280;6445;52.490;13.378;2023-04-22T08:52:36;52916.31;;;-146.10;24.47
12763;BME280;6445;52.490;13.378;2023-04-22T08:55:01;52924.31;;;-146.10;24.44
12763;BME280;6445;52.490;13.378;2023-04-22T08:57:27;52858.28;;;-146.10;24.90
12763;BME280;6445;52.490;13.378;2023-04-22T08:59:53;52976.31;;;-146.10;24.53
12763;BME280;6445;52.490;13.378;2023-04-22T09:02:20;53050.38;;;-146.10;24.36
12763;BME280;6445;52.490;13.378;2023-04-22T09:04:49;53120.41;;;-146.10;23.52
12763;BME280;6445;52.490;13.378;2023-04-22T09:07:22;53006.34;;;-146.10;24.28
12763;BME280;6445;52.490;13.378;2023-04-22T09:09:48;53188.44;;;-146.10;23.80
12763;BME280;6445;52.490;13.378;2023-04-22T09:12:14;53210.44;;;-146.10;22.92
12763;BME280;6445;52.490;13.378;2023-04-22T09:14:40;53170.44;;;-146.10;23.35
12763;BME280;6445;52.490;13.378;2023-04-22T09:17:06;52974.31;;;-146.10;24.44
12763;BME280;6445;52.490;13.378;2023-04-22T09:19:31;52918.31;;;-146.10;24.43
12763;BME280;6445;52.490;13.378;2023-04-22T09:21:57;53070.38;;;-146.10;24.13
12763;BME280;6445;52.490;13.378;2023-04-22T09:24:23;53068.38;;;-146.10;23.86
12763;BME280;6445;52.490;13.378;2023-04-22T09:26:48;53080.38;;;-146.10;23.80
12763;BME280;6445;52.490;13.378;2023-04-22T09:29:14;53246.47;;;-146.10;23.41
12763;BME280;6445;52.490;13.378;2023-04-22T09:31:40;53190.44;;;-146.10;23.58
12763;BME280;6445;52.490;13.378;2023-04-22T09:34:06;53186.44;;;-146.10;23.31
12763;BME280;6445;52.490;13.378;2023-04-22T09:36:32;52984.34;;;-146.10;24.17
12763;BME280;6445;52.490;13.378;2023-04-22T09:39:05;53088.38;;;-146.10;23.75
12763;BME280;6445;52.490;13.378;2023-04-22T09:41:36;53068.38;;;-146.10;23.79
12763;BME280;6445;52.490;13.378;2023-04-22T09:44:04;53048.38;;;-146.10;24.13
12763;BME280;6445;52.490;13.378;2023-04-22T09:46:30;53120.41;;;-146.10;23.80
12763;BME280;6445;52.490;13.378;2023-04-22T09:48:57;52980.34;;;-146.10;24.40
12763;BME280;6445;52.490;13.378;2023-04-22T09:51:23;53004.34;;;-146.10;24.56
12763;BME280;6445;52.490;13.378;2023-04-22T09:54:05;53084.38;;;-146.10;24.13
12763;BME280;6445;52.490;13.378;2023-04-22T09:56:48;53164.44;;;-146.10;23.64
12763;BME280;6445;52.490;13.378;2023-04-22T09:59:24;53136.41;;;-146.10;23.65
12763;BME280;6445;52.490;13.378;2023-04-22T10:01:55;53060.38;;;-146.10;24.00
12763;BME280;6445;52.490;13.378;2023-04-22T10:04:20;53112.41;;;-146.10;23.48
12763;BME280;6445;52.490;13.378;2023-04-22T10:06:47;53260.47;;;-146.10;22.86
12763;BME280;6445;52.490;13.378;2023-04-22T10:09:15;53136.41;;;-146.10;23.46
12763;BME280;6445;52.490;13.378;2023-04-22T10:11:41;53122.41;;;-146.10;23.43
12763;BME280;6445;52.490;13.378;2023-04-22T10:14:07;53088.38;;;-146.10;23.70
12763;BME280;6445;52.490;13.378;2023-04-22T10:16:35;52972.31;;;-146.10;24.23
12763;BME280;6445;52.490;13.378;2023-04-22T10:19:05;53138.41;;;-146.10;23.43
12763;BME280;6445;52.490;13.378;2023-04-22T10:21:31;53126.41;;;-146.10;23.61
12763;BME280;6445;52.490;13.378;2023-04-22T10:23:58;53184.44;;;-146.10;23.44
12763;BME280;6445;52.490;13.378;2023-04-22T10:29:06;53020.34;;;-146.10;23.78
12763;BME280;6445;52.490;13.378;2023-04-22T10:31:33;53180.44;;;-146.10;23.17
12763;BME280;6445;52.490;13.378;2023-04-22T10:34:11;53176.44;;;-146.10;23.00
12763;BME280;6445;52.490;13.378;2023-04-22T10:37:10;53288.50;;;-146.10;22.27
12763;BME280;6445;52.490;13.378;2023-04-22T10:39:37;53312.50;;;-146.10;22.01
12763;BME280;6445;52.490;13.378;2023-04-22T10:44:53;53296.50;;;-146.10;22.07
12763;BME280;6445;52.490;13.378;2023-04-22T10:47:30;53060.38;;;-146.10;22.66
12763;BME280;6445;52.490;13.378;2023-04-22T10:50:19;52990.34;;;-146.10;22.79
12763;BME280;6445;52.490;13.378;2023-04-22T10:52:48;53082.38;;;-146.10;23.03
12763;BME280;6445;52.490;13.378;2023-04-22T10:55:13;52968.31;;;-146.10;22.49
12763;BME280;6445;52.490;13.378;2023-04-22T10:57:41;53014.34;;;-146.10;22.23
12763;BME280;6445;52.490;13.378;2023-04-22T11:00:19;52856.28;;;-146.10;23.13
12763;BME280;6445;52.490;13.378;2023-04-22T11:02:46;52898.28;;;-146.10;22.57
12763;BME280;6445;52.490;13.378;2023-04-22T11:05:19;52880.28;;;-146.10;22.92
12763;BME280;6445;52.490;13.378;2023-04-22T11:07:47;52828.25;;;-146.10;23.52
12763;BME280;6445;52.490;13.378;2023-04-22T11:10:33;52796.25;;;-146.10;23.84
12763;BME280;6445;52.490;13.378;2023-04-22T11:13:00;52784.25;;;-146.10;23.80
12763;BME280;6445;52.490;13.378;2023-04-22T11:15:25;52870.28;;;-146.10;23.29
12763;BME280;6445;52.490;13.378;2023-04-22T11:17:53;52856.28;;;-146.10;23.71
12763;BME280;6445;52.490;13.378;2023-04-22T11:20:19;52874.28;;;-146.10;23.31
12763;BME280;6445;52.490;13.378;2023-04-22T11:22:55;52840.25;;;-146.10;23.85
12763;BME280;6445;52.490;13.378;2023-04-22T11:25:22;52958.31;;;-146.10;22.76
12763;BME280;6445;52.490;13.378;2023-04-22T11:27:48;53026.34;;;-146.10;22.69
12763;BME280;6445;52.490;13.378;2023-04-22T11:30:18;53098.38;;;-146.10;22.74
12763;BME280;6445;52.490;13.378;2023-04-22T11:32:48;52898.28;;;-146.10;23.59
12763;BME280;6445;52.490;13.378;2023-04-22T11:35:17;52946.31;;;-146.10;23.39
12763;BME280;6445;52.490;13.378;2023-04-22T11:38:01;52946.31;;;-146.10;23.13
12763;BME280;6445;52.490;13.378;2023-04-22T11:40:31;52914.31;;;-146.10;22.68
12763;BME280;6445;52.490;13.378;2023-04-22T11:42:59;52836.25;;;-146.10;23.30
12763;BME280;6445;52.490;13.378;2023-04-22T11:45:25;52776.22;;;-146.10;23.82
12763;BME280;6445;52.490;13.378;2023-04-22T11:47:51;52670.19;;;-146.10;24.16
12763;BME280;6445;52.490;13.378;2023-04-22T11:50:20;52698.19;;;-146.10;23.97
12763;BME280;6445;52.490;13.378;2023-04-22T11:52:56;52832.25;;;-146.10;23.48
12763;BME280;6445;52.490;13.378;2023-04-22T11:55:37;52826.25;;;-146.10;23.31
12763;BME280;6445;52.490;13.378;2023-04-22T11:58:11;52740.22;;;-146.10;23.54
12763;BME280;6445;52.490;13.378;2023-04-22T12:03:15;52708.22;;;-146.10;23.68
12763;BME280;6445;52.490;13.378;2023-04-22T12:05:43;52682.19;;;-146.10;23.71
12763;BME280;6445;52.490;13.378;2023-04-22T12:08:13;52620.16;;;-146.10;24.35
12763;BME280;6445;52.490;13.378;2023-04-22T12:10:40;52650.19;;;-146.10;23.84
12763;BME280;6445;52.490;13.378;2023-04-22T12:13:06;52660.19;;;-146.10;23.99
12763;BME280;6445;52.490;13.378;2023-04-22T12:15:42;52684.19;;;-146.10;24.33
12763;BME280;6445;52.490;13.378;2023-04-22T12:18:07;52726.22;;;-146.10;23.73
12763;BME280;6445;52.490;13.378;2023-04-22T12:20:34;52750.22;;;-146.10;23.82
12763;BME280;6445;52.490;13.378;2023-04-22T12:23:00;52724.22;;;-146.10;23.73
12763;BME280;6445;52.490;13.378;2023-04-22T12:25:26;52650.19;;;-146.10;23.87
12763;BME280;6445;52.490;13.378;2023-04-22T12:27:51;52804.25;;;-146.10;23.46
12763;BME280;6445;52.490;13.378;2023-04-22T12:30:16;52700.19;;;-146.10;23.69
12763;BME280;6445;52.490;13.378;2023-04-22T12:32:41;52752.22;;;-146.10;23.13
12763;BME280;6445;52.490;13.378;2023-04-22T12:35:07;52744.22;;;-146.10;23.37
12763;BME280;6445;52.490;13.378;2023-04-22T12:37:32;52758.22;;;-146.10;23.64
12763;BME280;6445;52.490;13.378;2023-04-22T12:39:58;52728.22;;;-146.10;23.60
12763;BME280;6445;52.490;13.378;2023-04-22T12:42:23;52722.22;;;-146.10;23.33
12763;BME280;6445;52.490;13.378;2023-04-22T12:44:48;52712.22;;;-146.10;23.54